Time;durP1;ratioP1;P1;durP2;ratioP2;P2;SDS_P1;SDS_P2;PMS_P1;PMS_P2;Temp;Humidity;BMP_temperature;BMP_pressure;BME280_temperature;BME280_humidity;BME280_pressure;Samples;Min_cycle;Max_cycle;Signal;HPM_P1;HPM_P2
2023/07/25 00:01:33;;;;;;;14.90;7.80;;;;;;;21.89;64.98;98543.98;107379;1253;66739;-40
2023/07/25 00:04:01;;;;;;;8.20;6.90;;;;;;;21.85;64.90;98542.80;107556;1253;72720;-40
2023/07/25 00:06:30;;;;;;;11.50;6.80;;;;;;;21.84;64.58;98543.99;107363;1256;61695;-39
2023/07/25 00:08:58;;;;;;;10.60;6.80;;;;;;;21.85;64.15;98544.27;107555;1253;60453;-40
2023/07/25 00:11:25;;;;;;;9.10;6.90;;;;;;;21.83;63.80;98539.17;107566;1251;72147;-40
2023/07/25 00:13:53;;;;;;;10.50;7.30;;;;;;;21.81;63.58;98532.64;107578;1253;66538;-39
2023/07/25 00:16:20;;;;;;;9.80;7.30;;;;;;;21.78;63.51;98525.98;107548;1256;72664;-40
2023/07/25 00:18:48;;;;;;;13.40;7.30;;;;;;;21.75;63.39;98521.21;107626;1256;60643;-40
2023/07/25 00:21:15;;;;;;;12.80;7.40;;;;;;;21.69;63.12;98520.70;107684;1257;60335;-40
2023/07/25 00:23:43;;;;;;;11.80;7.40;;;;;;;21.64;63.08;98518.14;107570;1252;72587;-40
2023/07/25 00:26:10;;;;;;;10.30;7.70;;;;;;;21.59;62.93;98515.11;107407;1254;67609;-40
2023/07/25 00:28:38;;;;;;;10.90;8.00;;;;;;;21.55;62.67;98515.46;107548;1253;71754;-39
2023/07/25 00:31:07;;;;;;;9.60;6.50;;;;;;;21.48;62.63;98512.16;107552;1253;60474;-40
2023/07/25 00:33:34;;;;;;;11.20;6.90;;;;;;;21.46;62.38;98511.77;107393;1253;58770;-39
2023/07/25 00:36:02;;;;;;;11.40;6.70;;;;;;;21.45;61.99;98517.81;107541;1252;72966;-39
2023/07/25 00:38:30;;;;;;;14.90;6.90;;;;;;;21.41;61.58;98516.53;107525;1259;66538;-39
2023/07/25 00:40:58;;;;;;;10.20;6.70;;;;;;;21.38;61.47;98519.13;107539;1257;71502;-39
2023/07/25 00:43:26;;;;;;;10.00;6.90;;;;;;;21.32;61.14;98514.75;107553;1255;60443;-39
2023/07/25 00:46:00;;;;;;;10.60;7.30;;;;;;;21.27;61.13;98519.59;107267;1256;61024;-39
2023/07/25 00:48:29;;;;;;;9.50;7.30;;;;;;;21.22;61.05;98519.53;107539;1257;74371;-39
2023/07/25 00:50:57;;;;;;;11.30;7.30;;;;;;;21.16;60.81;98519.29;107216;1252;67615;-39
2023/07/25 00:53:25;;;;;;;8.90;7.40;;;;;;;21.12;60.95;98520.05;107493;1256;71951;-39
2023/07/25 00:55:53;;;;;;;10.90;7.30;;;;;;;21.07;60.67;98519.66;107430;1257;60395;-39
2023/07/25 00:58:20;;;;;;;11.10;7.40;;;;;;;21.03;60.55;98521.65;107402;1257;60093;-39
2023/07/25 01:00:49;;;;;;;7.50;6.70;;;;;;;20.96;60.36;98519.92;107253;1259;72587;-39
2023/07/25 01:03:16;;;;;;;9.50;7.10;;;;;;;20.89;60.53;98522.86;107492;1257;67536;-39
2023/07/25 01:05:46;;;;;;;9.30;7.30;;;;;;;20.81;60.40;98521.48;107352;1254;72655;-39
2023/07/25 01:08:13;;;;;;;10.90;7.70;;;;;;;20.75;60.68;98514.08;107671;1257;61707;-39
2023/07/25 01:10:41;;;;;;;16.20;7.00;;;;;;;20.73;60.69;98515.27;107588;1256;60842;-39
2023/07/25 01:13:08;;;;;;;8.30;6.90;;;;;;;20.75;60.87;98513.13;107581;1254;73907;-39
2023/07/25 01:15:36;;;;;;;10.80;6.70;;;;;;;20.76;60.89;98509.63;107525;1253;66264;-40
2023/07/25 01:18:04;;;;;;;10.30;7.70;;;;;;;20.76;60.79;98507.11;107519;1257;72670;-39
2023/07/25 01:20:34;;;;;;;11.30;7.70;;;;;;;20.76;60.92;98508.77;107506;1257;59333;-39
2023/07/25 01:23:02;;;;;;;11.30;7.50;;;;;;;20.73;60.99;98506.96;107468;1258;60397;-40
2023/07/25 01:25:29;;;;;;;10.50;7.50;;;;;;;20.71;61.04;98510.54;107560;1256;72653;-40
2023/07/25 01:27:57;;;;;;;8.50;7.40;;;;;;;20.70;61.19;98515.19;107479;1256;67871;-40
2023/07/25 01:30:25;;;;;;;14.30;7.40;;;;;;;20.67;60.83;98515.93;107412;1258;70388;-40
2023/07/25 01:32:53;;;;;;;12.00;7.10;;;;;;;20.63;61.22;98514.88;107495;1255;60409;-40
2023/07/25 01:35:21;;;;;;;10.80;7.80;;;;;;;20.60;61.29;98516.96;107210;1257;60365;-40
2023/07/25 01:37:48;;;;;;;10.20;7.50;;;;;;;20.57;61.33;98513.95;107493;1254;73966;-40
2023/07/25 01:40:16;;;;;;;9.60;7.20;;;;;;;20.55;61.25;98509.29;107552;1259;67886;-40
2023/07/25 01:42:44;;;;;;;11.60;6.80;;;;;;;20.57;61.56;98509.84;107252;1255;71704;-40
2023/07/25 01:45:12;;;;;;;12.10;7.20;;;;;;;20.61;61.54;98502.22;107412;1254;60378;-40
2023/07/25 01:47:39;;;;;;;11.30;7.20;;;;;;;20.62;61.38;98502.52;107506;1254;60342;-40
2023/07/25 01:50:08;;;;;;;10.90;7.00;;;;;;;20.61;61.19;98502.85;107555;1254;74162;-40
2023/07/25 01:52:36;;;;;;;10.50;7.40;;;;;;;20.59;61.06;98503.86;107524;1254;67895;-40
2023/07/25 01:55:04;;;;;;;8.50;7.10;;;;;;;20.58;61.31;98509.27;107551;1254;72659;-40
2023/07/25 01:57:32;;;;;;;8.90;7.20;;;;;;;20.54;61.06;98510.19;107681;1257;60441;-40
2023/07/25 02:00:00;;;;;;;11.50;7.20;;;;;;;20.48;61.13;98511.26;107451;1254;60524;-40
2023/07/25 02:02:27;;;;;;;8.50;7.60;;;;;;;20.42;61.24;98509.42;107515;1256;73886;-40
2023/07/25 02:04:55;;;;;;;12.20;7.20;;;;;;;20.37;61.44;98509.96;107495;1256;67671;-40
2023/07/25 02:07:23;;;;;;;10.10;7.40;;;;;;;20.33;61.59;98510.95;107256;1257;72680;-40
2023/07/25 02:09:53;;;;;;;;;;;;;;;20.29;61.71;98509.35;107377;1255;59534;-40
2023/07/25 02:12:21;;;;;;;10.40;7.80;;;;;;;20.21;61.90;98503.11;107460;1253;60335;-40
2023/07/25 02:14:49;;;;;;;10.40;7.90;;;;;;;20.14;62.05;98507.60;107402;1254;72627;-40
2023/07/25 02:17:19;;;;;;;11.30;7.50;;;;;;;20.15;62.11;98506.35;107333;1254;66797;-40
2023/07/25 02:19:47;;;;;;;12.30;7.50;;;;;;;20.18;61.80;98505.46;107423;1254;71393;-40
2023/07/25 02:22:15;;;;;;;10.50;7.70;;;;;;;20.19;61.98;98509.38;107465;1251;59285;-40
2023/07/25 02:24:42;;;;;;;12.00;8.40;;;;;;;20.17;61.69;98511.17;107467;1251;60519;-40
2023/07/25 02:27:10;;;;;;;12.10;7.70;;;;;;;20.13;61.81;98510.38;107206;1251;72553;-40
2023/07/25 02:29:38;;;;;;;11.60;8.10;;;;;;;20.07;61.99;98505.60;107507;1254;67878;-40
2023/07/25 02:32:06;;;;;;;13.70;7.90;;;;;;;19.99;62.10;98499.28;107483;1256;72955;-40
2023/07/25 02:34:33;;;;;;;11.70;7.90;;;;;;;19.92;62.38;98495.73;107657;1256;59656;-39
2023/07/25 02:37:01;;;;;;;10.10;7.50;;;;;;;19.90;62.42;98487.05;107537;1254;60296;-39
2023/07/25 02:39:34;;;;;;;13.20;7.90;;;;;;;19.89;62.54;98481.70;107689;1251;72579;-39
2023/07/25 02:42:01;;;;;;;11.20;7.50;;;;;;;19.86;62.71;98487.81;107521;1254;67884;-40
2023/07/25 02:44:29;;;;;;;11.40;7.60;;;;;;;19.89;63.00;98489.92;107485;1260;72698;-40
2023/07/25 02:46:57;;;;;;;14.50;7.90;;;;;;;19.95;62.84;98486.20;107452;1258;60559;-40
2023/07/25 02:49:24;;;;;;;11.00;7.60;;;;;;;19.98;62.84;98486.74;107543;1252;60420;-40
2023/07/25 02:51:52;;;;;;;11.50;7.20;;;;;;;19.97;62.81;98488.96;107395;1253;73812;-39
2023/07/25 02:54:20;;;;;;;11.80;7.50;;;;;;;19.96;62.50;98490.97;107541;1254;67567;-40
2023/07/25 02:56:47;;;;;;;11.00;8.00;;;;;;;19.92;62.60;98487.02;107529;1256;72711;-40
2023/07/25 02:59:15;;;;;;;11.80;7.50;;;;;;;19.84;62.89;98487.98;107454;1254;60088;-40
2023/07/25 03:01:43;;;;;;;12.20;8.10;;;;;;;19.81;63.18;98485.73;107523;1257;59221;-40
2023/07/25 03:04:10;;;;;;;9.70;7.80;;;;;;;19.77;63.28;98482.94;107557;1251;72895;-39
2023/07/25 03:06:38;;;;;;;10.80;8.20;;;;;;;19.76;63.35;98481.34;107408;1252;67593;-38
2023/07/25 03:09:06;;;;;;;11.30;7.70;;;;;;;19.75;63.48;98475.86;107526;1254;71352;-38
2023/07/25 03:11:34;;;;;;;12.20;7.40;;;;;;;19.79;63.50;98473.36;107413;1254;60401;-38
2023/07/25 03:14:02;;;;;;;10.70;8.40;;;;;;;19.80;63.41;98473.33;107621;1254;60349;-38
2023/07/25 03:16:31;;;;;;;8.70;7.00;;;;;;;19.81;63.60;98469.21;107463;1259;73928;-38
2023/07/25 03:18:58;;;;;;;11.90;8.00;;;;;;;19.81;63.60;98465.91;107474;1254;67599;-38
2023/07/25 03:21:26;;;;;;;11.50;8.00;;;;;;;19.85;63.53;98466.87;107527;1258;71398;-38
2023/07/25 03:23:53;;;;;;;11.10;7.60;;;;;;;19.87;63.63;98466.98;107468;1251;60396;-38
2023/07/25 03:26:21;;;;;;;11.20;8.40;;;;;;;19.89;63.60;98468.24;107380;1257;60471;-38
2023/07/25 03:28:48;;;;;;;10.90;8.20;;;;;;;19.91;63.53;98467.96;107315;1254;72548;-38
2023/07/25 03:31:16;;;;;;;12.10;7.40;;;;;;;19.94;63.44;98468.64;107698;1251;67915;-38
2023/07/25 03:33:43;;;;;;;12.90;8.20;;;;;;;19.97;63.34;98467.90;107491;1254;72496;-38
2023/07/25 03:36:11;;;;;;;11.90;8.10;;;;;;;19.98;63.36;98467.97;107466;1251;60455;-38
2023/07/25 03:38:39;;;;;;;10.10;7.70;;;;;;;19.98;63.46;98468.44;107433;1254;60528;-38
2023/07/25 03:41:06;;;;;;;11.60;7.60;;;;;;;19.98;63.51;98464.80;107440;1255;73903;-38
2023/07/25 03:43:34;;;;;;;14.30;8.00;;;;;;;20.00;63.65;98463.09;107542;1257;66271;-38
2023/07/25 03:46:06;;;;;;;14.00;8.40;;;;;;;20.04;63.59;98460.05;107473;1254;72778;-39
2023/07/25 03:48:41;;;;;;;11.70;7.90;;;;;;;20.04;63.56;98459.17;107362;1254;60379;-37
2023/07/25 03:51:09;;;;;;;13.20;7.60;;;;;;;20.03;63.84;98452.05;107307;1254;60316;-38
2023/07/25 03:53:37;;;;;;;16.00;7.80;;;;;;;20.08;63.86;98451.10;107316;1257;72625;-38
2023/07/25 03:56:04;;;;;;;12.00;8.10;;;;;;;20.14;63.51;98448.77;107404;1254;66639;-38
2023/07/25 03:58:32;;;;;;;9.60;7.30;;;;;;;20.16;63.69;98444.76;107482;1254;72670;-39
2023/07/25 04:00:59;;;;;;;10.20;7.60;;;;;;;20.20;63.61;98445.13;107476;1252;60466;-38
2023/07/25 04:03:27;;;;;;;12.70;8.10;;;;;;;20.23;63.49;98448.48;107447;1254;60344;-38
2023/07/25 04:05:55;;;;;;;11.80;7.80;;;;;;;20.25;63.82;98446.77;107453;1257;73836;-38
2023/07/25 04:08:23;;;;;;;12.40;8.30;;;;;;;20.26;63.54;98446.79;107532;1257;66652;-38
2023/07/25 04:10:50;;;;;;;11.70;7.30;;;;;;;20.27;63.70;98441.70;107434;1254;72657;-38
2023/07/25 04:13:21;;;;;;;9.90;7.50;;;;;;;20.32;63.54;98446.45;107474;1257;60464;-40
2023/07/25 04:16:11;;;;;;;12.30;7.40;;;;;;;20.40;63.57;98449.88;107388;1254;60318;-39
2023/07/25 04:18:42;;;;;;;12.00;7.90;;;;;;;20.43;63.44;98459.44;107514;1254;72457;-40
2023/07/25 04:21:10;;;;;;;11.10;8.00;;;;;;;20.46;63.72;98467.90;107463;1254;69556;-40
2023/07/25 04:23:38;;;;;;;12.20;8.10;;;;;;;20.50;63.53;98460.84;107516;1254;72748;-40
2023/07/25 04:26:05;;;;;;;10.50;8.60;;;;;;;20.55;63.57;98456.27;107430;1254;60450;-39
2023/07/25 04:28:33;;;;;;;11.50;8.00;;;;;;;20.58;63.36;98457.63;107542;1252;60762;-41
2023/07/25 04:31:05;;;;;;;10.30;8.10;;;;;;;20.63;63.71;98458.48;107514;1253;76380;-41
2023/07/25 04:33:37;;;;;;;11.10;7.30;;;;;;;20.72;63.37;98453.98;107404;1255;70023;-39
2023/07/25 04:36:06;;;;;;;15.10;7.60;;;;;;;20.82;63.27;98454.73;107458;1254;71415;-42
2023/07/25 04:38:35;;;;;;;11.60;8.00;;;;;;;20.89;63.16;98452.96;107297;1261;62070;-38
2023/07/25 04:41:06;;;;;;;12.50;8.40;;;;;;;20.94;63.06;98453.17;107485;1253;60846;-40
2023/07/25 04:43:45;;;;;;;13.80;8.20;;;;;;;21.02;63.12;98451.62;107424;1254;72336;-40
2023/07/25 04:46:15;;;;;;;9.30;7.30;;;;;;;21.09;62.99;98449.51;107448;1257;67054;-39
2023/07/25 04:48:42;;;;;;;10.90;7.80;;;;;;;21.13;63.00;98444.57;108831;1254;72679;-40
2023/07/25 04:51:10;;;;;;;10.80;7.90;;;;;;;21.20;62.50;98447.55;107407;1254;61675;-40
2023/07/25 04:53:38;;;;;;;12.40;7.60;;;;;;;21.30;62.32;98446.61;107394;1254;58811;-40
2023/07/25 04:56:05;;;;;;;10.30;7.90;;;;;;;21.43;61.99;98438.23;107318;1255;73897;-40
2023/07/25 04:58:33;;;;;;;9.70;7.20;;;;;;;21.53;61.96;98431.73;107282;1254;67602;-39
2023/07/25 05:01:01;;;;;;;10.00;7.20;;;;;;;21.68;61.67;98433.27;107308;1254;71624;-39
2023/07/25 05:03:28;;;;;;;11.10;7.10;;;;;;;21.78;60.70;98432.48;107286;1254;61052;-39
2023/07/25 05:05:57;;;;;;;10.10;7.90;;;;;;;21.86;60.74;98433.01;107412;1254;59146;-39
2023/07/25 05:08:24;;;;;;;13.00;8.00;;;;;;;21.91;60.98;98429.55;107454;1254;73843;-40
2023/07/25 05:10:53;;;;;;;16.10;7.90;;;;;;;21.95;60.51;98423.88;107355;1254;66456;-39
2023/07/25 05:13:21;;;;;;;10.00;8.30;;;;;;;22.00;60.54;98424.02;107357;1257;72643;-39
2023/07/25 05:15:49;;;;;;;11.70;7.70;;;;;;;22.05;60.58;98421.95;107419;1254;60217;-40
2023/07/25 05:21:21;;;;;;;11.10;7.50;;;;;;;22.25;60.69;98413.07;104112;1292;600394;-39
2023/07/25 05:23:49;;;;;;;10.40;7.00;;;;;;;22.36;60.20;98406.34;106586;1266;60086;-39
2023/07/25 05:26:16;;;;;;;9.60;7.40;;;;;;;22.46;59.94;98403.55;106572;1267;60036;-39
2023/07/25 05:28:44;;;;;;;14.90;7.60;;;;;;;22.56;59.75;98399.02;106500;1272;72235;-40
2023/07/25 05:31:11;;;;;;;10.80;7.80;;;;;;;22.69;59.58;98398.34;106550;1267;67230;-39
2023/07/25 05:33:39;;;;;;;11.70;7.50;;;;;;;22.79;59.59;98398.88;106580;1271;71386;-39
2023/07/25 05:36:06;;;;;;;11.70;8.10;;;;;;;22.87;59.39;98399.65;106507;1264;159371;-39
2023/07/25 05:38:34;;;;;;;15.00;8.00;;;;;;;22.97;59.32;98399.89;106700;1264;59307;-39
2023/07/25 05:41:02;;;;;;;11.20;7.90;;;;;;;23.07;59.02;98406.55;106698;1264;71009;-39
2023/07/25 05:43:29;;;;;;;13.30;8.60;;;;;;;23.14;58.46;98407.63;106718;1264;66310;-39
2023/07/25 05:45:57;;;;;;;12.40;8.10;;;;;;;23.21;58.09;98407.89;106641;1264;71451;-40
2023/07/25 05:48:25;;;;;;;10.20;7.70;;;;;;;23.24;58.18;98400.27;106670;1265;60058;-39
2023/07/25 05:50:52;;;;;;;11.10;7.50;;;;;;;23.28;58.23;98399.21;106663;1264;59618;-39
2023/07/25 05:53:20;;;;;;;10.70;8.10;;;;;;;23.31;57.90;98391.24;106750;1264;73057;-40
2023/07/25 05:55:48;;;;;;;10.60;7.40;;;;;;;23.34;58.36;98387.63;106767;1264;67547;-40
2023/07/25 05:58:15;;;;;;;11.70;7.70;;;;;;;23.40;58.65;98393.11;106764;1265;71416;-39
2023/07/25 06:00:43;;;;;;;11.30;7.40;;;;;;;23.51;58.42;98392.95;106655;1267;61738;-40
2023/07/25 06:03:13;;;;;;;8.30;7.20;;;;;;;23.65;58.05;98394.06;106698;1270;59522;-40
2023/07/25 06:05:41;;;;;;;10.20;7.80;;;;;;;23.75;58.19;98392.34;106760;1264;73087;-40
2023/07/25 06:08:09;;;;;;;9.30;7.40;;;;;;;23.86;58.46;98393.35;106720;1264;68352;-40
2023/07/25 06:10:36;;;;;;;9.50;7.80;;;;;;;23.97;58.10;98393.63;106701;1266;70530;-39
2023/07/25 06:13:04;;;;;;;8.80;7.10;;;;;;;24.08;56.92;98390.77;106691;1267;59522;-40
2023/07/25 06:15:34;;;;;;;10.10;7.40;;;;;;;24.16;55.98;98386.82;106739;1264;60111;-39
2023/07/25 06:18:03;;;;;;;9.90;7.00;;;;;;;24.23;55.61;98390.19;106703;1264;71774;-40
2023/07/25 06:20:34;;;;;;;12.70;7.30;;;;;;;24.29;55.79;98387.13;106649;1265;66286;-40
2023/07/25 06:23:02;;;;;;;8.90;7.00;;;;;;;24.34;55.69;98381.98;108561;1266;71011;-41
2023/07/25 06:25:29;;;;;;;8.90;7.20;;;;;;;24.41;55.68;98381.86;108496;1264;59315;-41
2023/07/25 06:27:57;;;;;;;9.70;7.50;;;;;;;24.50;55.61;98383.88;107127;1269;59750;-40
2023/07/25 06:30:24;;;;;;;13.20;7.30;;;;;;;24.54;55.72;98379.13;106595;1264;71871;-40
2023/07/25 06:32:52;;;;;;;11.70;6.80;;;;;;;24.56;55.47;98382.48;106615;1263;67594;-40
2023/07/25 06:35:22;;;;;;;8.80;7.40;;;;;;;24.57;55.44;98380.70;106610;1266;72739;-38
2023/07/25 06:37:50;;;;;;;9.10;7.60;;;;;;;24.58;55.30;98382.06;106721;1266;60068;-38
2023/07/25 06:40:17;;;;;;;11.60;7.10;;;;;;;24.60;55.62;98377.52;106730;1265;60015;-39
2023/07/25 06:42:45;;;;;;;9.80;7.60;;;;;;;24.65;56.46;98377.10;106692;1266;72869;-38
2023/07/25 06:45:14;;;;;;;8.80;7.70;;;;;;;24.72;56.02;98370.80;106741;1263;66292;-39
2023/07/25 06:47:42;;;;;;;8.80;7.50;;;;;;;24.80;56.20;98372.96;106709;1266;71487;-40
2023/07/25 06:50:09;;;;;;;10.10;7.80;;;;;;;24.91;55.97;98368.83;106714;1264;60535;-39
2023/07/25 06:52:37;;;;;;;9.00;7.20;;;;;;;25.04;55.77;98362.64;106697;1266;59597;-39
2023/07/25 06:55:06;;;;;;;15.20;7.90;;;;;;;25.19;55.03;98366.88;106630;1266;73069;-39
2023/07/25 06:57:33;;;;;;;9.50;7.70;;;;;;;25.30;53.96;98365.08;106690;1264;67611;-40
2023/07/25 07:00:01;;;;;;;12.40;7.40;;;;;;;25.42;54.16;98377.82;106692;1265;71478;-40
2023/07/25 07:02:29;;;;;;;11.60;7.30;;;;;;;25.52;53.70;98378.88;106743;1267;59305;-39
2023/07/25 07:04:56;;;;;;;10.40;7.90;;;;;;;25.58;52.49;98374.27;106660;1266;59522;-39
2023/07/25 07:07:24;;;;;;;11.90;7.50;;;;;;;25.61;53.02;98370.38;106713;1263;73526;-39
2023/07/25 07:09:52;;;;;;;9.20;8.00;;;;;;;25.64;52.76;98356.95;106704;1265;66440;-39
2023/07/25 07:12:19;;;;;;;10.70;8.10;;;;;;;25.66;53.27;98349.76;106687;1267;73092;-39
2023/07/25 07:14:47;;;;;;;10.50;8.20;;;;;;;25.66;53.78;98341.42;106675;1266;59971;-40
2023/07/25 07:17:14;;;;;;;9.80;7.60;;;;;;;25.66;54.36;98348.20;106692;1265;59512;-40
2023/07/25 07:19:42;;;;;;;10.90;8.50;;;;;;;25.69;54.99;98360.23;106707;1266;73035;-39
2023/07/25 07:22:09;;;;;;;13.20;8.40;;;;;;;25.73;55.19;98361.41;106740;1265;67627;-39
2023/07/25 07:24:37;;;;;;;9.80;8.50;;;;;;;25.77;54.76;98359.49;106696;1266;71637;-39
2023/07/25 07:27:05;;;;;;;10.80;8.60;;;;;;;25.81;54.47;98355.80;106691;1266;59826;-39
2023/07/25 07:29:32;;;;;;;12.90;9.20;;;;;;;25.84;53.41;98359.27;106713;1265;59945;-40
2023/07/25 07:32:02;;;;;;;11.30;9.20;;;;;;;25.84;52.75;98361.23;106653;1265;72322;-39
2023/07/25 07:34:30;;;;;;;12.60;9.00;;;;;;;25.84;52.70;98360.13;106680;1264;67563;-40
2023/07/25 07:36:58;;;;;;;11.90;8.30;;;;;;;25.84;53.33;98360.08;106588;1267;72737;-40
2023/07/25 07:39:26;;;;;;;14.30;7.50;;;;;;;25.84;52.98;98355.78;106709;1267;60163;-40
2023/07/25 07:41:54;;;;;;;13.50;8.10;;;;;;;25.86;52.54;98347.88;106655;1264;62232;-39
2023/07/25 07:44:22;;;;;;;10.70;7.40;;;;;;;25.91;52.16;98333.70;106635;1265;73175;-39
2023/07/25 07:46:52;;;;;;;8.80;7.20;;;;;;;25.97;50.98;98327.35;106767;1263;67619;-39
2023/07/25 07:49:19;;;;;;;13.30;7.80;;;;;;;26.04;51.58;98325.51;106706;1266;71869;-39
2023/07/25 07:51:47;;;;;;;9.50;7.40;;;;;;;26.12;51.83;98334.64;106704;1265;60052;-40
2023/07/25 07:54:34;;;;;;;12.50;7.00;;;;;;;26.27;51.56;98335.73;106721;1266;59864;-40
2023/07/25 07:57:03;;;;;;;9.40;7.20;;;;;;;26.41;51.66;98337.42;106687;1266;73075;-40
2023/07/25 07:59:30;;;;;;;23.00;8.50;;;;;;;26.59;50.87;98336.58;106606;1266;67630;-40
2023/07/25 08:01:58;;;;;;;141.10;24.10;;;;;;;26.74;50.78;98327.10;106630;1267;71450;-39
2023/07/25 08:04:25;;;;;;;15.40;8.40;;;;;;;26.86;50.39;98323.92;106682;1265;60093;-39
2023/07/25 08:06:53;;;;;;;13.70;7.70;;;;;;;27.00;50.04;98321.20;106704;1265;60047;-39
2023/07/25 08:09:20;;;;;;;11.20;7.40;;;;;;;27.11;49.55;98318.48;106718;1266;72576;-39
2023/07/25 08:11:48;;;;;;;24.60;8.80;;;;;;;27.17;49.09;98315.90;106716;1265;66280;-40
2023/07/25 08:14:16;;;;;;;12.10;7.20;;;;;;;27.17;49.34;98315.89;106712;1265;72759;-39
2023/07/25 08:16:43;;;;;;;16.00;7.80;;;;;;;27.14;49.54;98318.21;106727;1263;59602;-39
2023/07/25 08:19:11;;;;;;;7.90;6.70;;;;;;;27.12;50.07;98320.86;106739;1264;60015;-39
2023/07/25 08:21:38;;;;;;;15.10;7.70;;;;;;;27.11;50.66;98323.23;106712;1267;73066;-39
2023/07/25 08:24:06;;;;;;;11.80;6.70;;;;;;;27.10;50.82;98321.88;106715;1264;67573;-39
2023/07/25 08:26:34;;;;;;;10.50;7.20;;;;;;;27.08;50.81;98321.96;106722;1266;72693;-40
2023/07/25 08:29:01;;;;;;;8.30;6.90;;;;;;;27.08;51.50;98320.74;106689;1266;59647;-39
2023/07/25 08:31:29;;;;;;;10.20;7.10;;;;;;;27.11;51.14;98317.48;106735;1266;60023;-39
2023/07/25 08:33:57;;;;;;;11.80;7.20;;;;;;;27.12;50.78;98315.41;106715;1266;73402;-40
2023/07/25 08:36:25;;;;;;;11.70;7.80;;;;;;;27.13;50.70;98315.52;106734;1265;66737;-39
2023/07/25 08:38:52;;;;;;;9.50;7.20;;;;;;;27.13;50.97;98308.78;106681;1266;72674;-39
2023/07/25 08:41:26;;;;;;;11.80;7.40;;;;;;;27.13;50.27;98307.52;106699;1264;59740;-40
2023/07/25 08:43:54;;;;;;;12.00;7.30;;;;;;;27.16;50.48;98303.30;106750;1263;59639;-39
2023/07/25 08:46:21;;;;;;;8.30;7.50;;;;;;;27.22;50.45;98302.05;106726;1270;73044;-39
2023/07/25 08:48:49;;;;;;;10.00;7.20;;;;;;;27.31;50.68;98294.72;106567;1266;67936;-40
2023/07/25 08:51:19;;;;;;;13.00;7.70;;;;;;;27.43;50.77;98291.30;107433;1254;72787;-41
2023/07/25 08:53:58;;;;;;;10.80;7.80;;;;;;;27.57;50.23;98290.77;107500;1254;60200;-39
2023/07/25 08:56:26;;;;;;;9.30;7.60;;;;;;;27.71;49.66;98285.89;107503;1253;58775;-39
2023/07/25 08:58:54;;;;;;;9.60;7.20;;;;;;;27.81;49.34;98284.67;107448;1256;73398;-40
2023/07/25 09:01:22;;;;;;;10.50;8.20;;;;;;;27.94;49.55;98282.93;107454;1254;68386;-39
2023/07/25 09:03:49;;;;;;;9.50;7.40;;;;;;;28.10;49.53;98280.80;107485;1254;71433;-41
2023/07/25 09:06:17;;;;;;;12.80;8.00;;;;;;;28.27;49.31;98279.46;107383;1259;59545;-40
2023/07/25 09:08:45;;;;;;;10.80;7.80;;;;;;;28.41;49.56;98274.55;107489;1254;60612;-40
2023/07/25 09:11:21;;;;;;;11.90;7.70;;;;;;;28.57;50.31;98272.73;107554;1254;73110;-40
2023/07/25 09:13:49;;;;;;;12.30;7.90;;;;;;;28.71;49.48;98271.13;107393;1258;67746;-39
2023/07/25 09:16:16;;;;;;;13.90;8.40;;;;;;;28.81;49.37;98270.51;107302;1253;72671;-39
2023/07/25 09:18:44;;;;;;;12.40;7.70;;;;;;;28.91;50.19;98267.70;107313;1255;59789;-39
2023/07/25 09:21:13;;;;;;;19.90;9.30;;;;;;;29.05;50.15;98264.83;107310;1253;60012;-39
2023/07/25 09:23:56;;;;;;;29.50;9.50;;;;;;;29.20;49.03;98266.47;107305;1253;74907;-40
2023/07/25 09:26:25;;;;;;;57.90;12.40;;;;;;;29.26;48.87;98263.66;107357;1254;66765;-40
2023/07/25 09:28:54;;;;;;;33.40;11.20;;;;;;;29.30;47.65;98258.88;107486;1253;72931;-39
2023/07/25 09:31:27;;;;;;;16.60;8.40;;;;;;;29.38;48.47;98256.64;107367;1254;60373;-39
2023/07/25 09:33:55;;;;;;;11.40;8.20;;;;;;;29.47;47.01;98252.54;107644;1253;59279;-38
2023/07/25 09:36:23;;;;;;;13.60;8.20;;;;;;;29.55;47.49;98258.95;107311;1254;73921;-39
2023/07/25 09:38:54;;;;;;;62.80;13.50;;;;;;;29.64;48.07;98252.96;107477;1254;68023;-39
2023/07/25 09:41:22;;;;;;;20.60;8.90;;;;;;;29.71;47.95;98249.21;107350;1254;72753;-39
2023/07/25 09:43:51;;;;;;;13.40;8.40;;;;;;;29.73;47.37;98250.98;107383;1254;60431;-38
2023/07/25 09:46:19;;;;;;;12.40;7.40;;;;;;;29.71;47.03;98247.34;107405;1253;60011;-39
2023/07/25 09:48:50;;;;;;;15.60;7.90;;;;;;;29.67;47.54;98244.26;107340;1253;73860;-39
2023/07/25 09:51:18;;;;;;;11.30;7.90;;;;;;;29.67;47.87;98245.33;107355;1253;67610;-39
2023/07/25 09:53:50;;;;;;;9.90;7.80;;;;;;;29.67;48.14;98239.94;107413;1254;72951;-39
2023/07/25 09:56:26;;;;;;;11.20;8.30;;;;;;;29.68;47.26;98241.66;107530;1254;60264;-40
2023/07/25 09:58:54;;;;;;;13.90;7.50;;;;;;;29.68;48.46;98245.58;107361;1253;60154;-39
2023/07/25 10:01:25;;;;;;;14.60;8.10;;;;;;;29.70;47.60;98247.19;107436;1254;73844;-39
2023/07/25 10:03:54;;;;;;;12.10;7.90;;;;;;;29.75;47.65;98242.94;107304;1254;67576;-39
2023/07/25 10:06:22;;;;;;;13.80;7.50;;;;;;;29.83;47.28;98241.52;107362;1254;71466;-39
2023/07/25 10:08:50;;;;;;;12.50;7.90;;;;;;;29.91;47.62;98241.04;107336;1254;60656;-39
2023/07/25 10:11:35;;;;;;;16.20;9.00;;;;;;;30.02;47.64;98242.75;107282;1254;60453;-39
2023/07/25 10:14:03;;;;;;;13.60;8.30;;;;;;;30.08;47.20;98238.48;107271;1259;74546;-39
2023/07/25 10:16:31;;;;;;;13.20;8.20;;;;;;;30.13;46.63;98241.09;107283;1253;66764;-39
2023/07/25 10:18:58;;;;;;;15.50;8.00;;;;;;;30.14;46.59;98240.52;107323;1254;71439;-40
2023/07/25 10:21:26;;;;;;;13.70;8.20;;;;;;;30.18;46.54;98237.42;107391;1253;60299;-39
2023/07/25 10:23:58;;;;;;;19.20;8.10;;;;;;;30.20;47.13;98238.91;107499;1254;60536;-39
2023/07/25 10:26:27;;;;;;;11.10;8.20;;;;;;;30.24;47.31;98235.17;107516;1255;73927;-39
2023/07/25 10:29:01;;;;;;;12.40;7.90;;;;;;;30.30;46.59;98231.15;107455;1254;67887;-40
2023/07/25 10:31:33;;;;;;;9.90;7.50;;;;;;;30.39;47.12;98231.44;107358;1254;72729;-39
2023/07/25 10:34:02;;;;;;;9.80;7.10;;;;;;;30.53;46.58;98228.65;107296;1257;60513;-39
2023/07/25 10:36:29;;;;;;;9.70;7.90;;;;;;;30.67;46.34;98223.18;107322;1254;61769;-39
2023/07/25 10:39:06;;;;;;;10.90;7.80;;;;;;;30.82;45.95;98220.44;107432;1254;73872;-39
2023/07/25 10:41:33;;;;;;;15.60;8.20;;;;;;;30.97;45.05;98215.34;107322;1254;67562;-39
2023/07/25 10:44:01;;;;;;;12.10;7.90;;;;;;;31.10;44.80;98219.48;107341;1254;71524;-39
2023/07/25 10:46:31;;;;;;;11.70;7.80;;;;;;;31.22;44.39;98220.17;107440;1258;60293;-39
2023/07/25 10:49:00;;;;;;;9.70;8.50;;;;;;;31.34;44.37;98217.66;107466;1254;60517;-39
2023/07/25 10:51:50;;;;;;;13.20;8.40;;;;;;;31.47;44.29;98214.79;107394;1254;73992;-39
2023/07/25 10:54:22;;;;;;;11.40;8.70;;;;;;;31.61;43.62;98205.27;107394;1254;67726;-39
2023/07/25 10:57:14;;;;;;;10.10;8.10;;;;;;;31.72;44.11;98204.09;107471;1253;72789;-39
2023/07/25 11:00:04;;;;;;;10.80;8.20;;;;;;;31.88;42.94;98196.25;107358;1254;60459;-39
2023/07/25 11:02:36;;;;;;;12.30;8.30;;;;;;;32.05;42.92;98191.11;107395;1254;60303;-40
2023/07/25 11:05:13;;;;;;;23.80;9.60;;;;;;;32.24;42.53;98187.51;107400;1254;73829;-39
2023/07/25 11:07:47;;;;;;;16.70;9.50;;;;;;;32.49;41.15;98187.38;107363;1254;68086;-39
2023/07/25 11:10:28;;;;;;;18.90;9.40;;;;;;;32.68;40.73;98183.23;107472;1253;71065;-40
2023/07/25 11:12:58;;;;;;;9.60;8.20;;;;;;;32.80;40.33;98181.63;107438;1254;59278;-40
2023/07/25 11:15:34;;;;;;;9.60;7.90;;;;;;;32.94;40.86;98179.62;107064;1253;60335;-38
2023/07/25 11:18:14;;;;;;;16.20;8.40;;;;;;;33.09;39.57;98182.33;107466;1253;73907;-38
2023/07/25 11:20:41;;;;;;;10.70;8.80;;;;;;;33.16;38.62;98181.02;107402;1254;67573;-38
2023/07/25 11:23:09;;;;;;;10.40;8.60;;;;;;;33.23;37.46;98176.82;107324;1254;72417;-39
2023/07/25 11:25:37;;;;;;;10.80;8.10;;;;;;;33.27;37.34;98172.25;107381;1254;60274;-39
2023/07/25 11:28:05;;;;;;;11.00;8.10;;;;;;;33.34;36.93;98170.86;107303;1254;60367;-40
2023/07/25 11:30:34;;;;;;;9.90;8.40;;;;;;;33.43;36.31;98166.42;107437;1253;73911;-40